createdAt,value
2018-09-29T00:00:14.202Z,3.53
2018-09-29T00:02:42.204Z,6.07
2018-09-29T00:05:10.174Z,4.10
2018-09-29T00:07:38.412Z,3.93
2018-09-29T00:10:06.479Z,5.10
2018-09-29T00:12:34.422Z,3.80
2018-09-29T00:15:02.402Z,9.93
2018-09-29T00:17:30.350Z,7.13
2018-09-29T00:19:58.338Z,4.43
2018-09-29T00:22:26.294Z,3.63
2018-09-29T00:24:54.306Z,4.47
2018-09-29T00:27:22.308Z,10.03
2018-09-29T00:29:50.375Z,3.30
2018-09-29T00:32:18.575Z,5.00
2018-09-29T00:34:46.518Z,6.37
2018-09-29T00:37:14.520Z,4.87
2018-09-29T00:39:42.580Z,9.47
2018-09-29T00:42:10.503Z,7.40
2018-09-29T00:44:38.499Z,2.37
2018-09-29T00:47:06.464Z,6.33
2018-09-29T00:49:34.478Z,4.60
2018-09-29T00:52:02.531Z,6.67
2018-09-29T00:54:30.472Z,3.77
2018-09-29T00:56:58.867Z,3.03
2018-09-29T00:59:26.689Z,5.97
2018-09-29T01:01:54.705Z,6.77
2018-09-29T01:04:22.778Z,3.80
2018-09-29T01:06:50.734Z,6.40
2018-09-29T01:09:18.773Z,6.07
2018-09-29T01:11:46.705Z,4.07
2018-09-29T01:14:14.918Z,7.53
2018-09-29T01:16:42.927Z,3.30
2018-09-29T01:19:11.819Z,6.20
2018-09-29T01:21:39.792Z,7.53
2018-09-29T01:24:07.859Z,6.70
2018-09-29T01:26:35.830Z,4.87
2018-09-29T01:29:03.795Z,4.57
2018-09-29T01:31:31.876Z,3.70
2018-09-29T01:33:59.869Z,6.00
2018-09-29T01:36:27.933Z,13.43
2018-09-29T01:38:55.876Z,4.20
2018-09-29T01:41:23.819Z,3.03
2018-09-29T01:43:55.208Z,3.43
2018-09-29T01:46:23.162Z,5.50
2018-09-29T01:48:51.242Z,3.90
2018-09-29T01:51:19.311Z,5.17
2018-09-29T01:53:47.283Z,6.73
2018-09-29T01:56:15.290Z,5.93
2018-09-29T01:58:43.377Z,7.93
2018-09-29T02:01:11.339Z,4.97
2018-09-29T02:03:39.378Z,6.03
2018-09-29T02:06:07.428Z,5.20
2018-09-29T02:08:35.719Z,8.83
2018-09-29T02:11:03.782Z,6.07
2018-09-29T02:13:31.759Z,6.50
2018-09-29T02:15:59.745Z,6.47
2018-09-29T02:18:27.798Z,4.70
2018-09-29T02:20:55.877Z,10.10
2018-09-29T02:23:23.864Z,3.87
2018-09-29T02:25:51.808Z,3.50
2018-09-29T02:28:19.834Z,8.37
2018-09-29T02:30:47.867Z,8.87
2018-09-29T02:33:15.939Z,7.43
2018-09-29T02:35:43.997Z,5.07
2018-09-29T02:38:11.953Z,6.17
2018-09-29T02:40:39.967Z,5.37
2018-09-29T02:43:08.084Z,6.30
2018-09-29T02:45:36.096Z,4.10
2018-09-29T02:48:04.049Z,5.83
2018-09-29T02:50:32.028Z,6.27
2018-09-29T02:53:00.039Z,6.17
2018-09-29T02:55:27.986Z,5.43
2018-09-29T02:57:56.106Z,4.13
2018-09-29T03:00:24.229Z,8.13
2018-09-29T03:02:52.166Z,7.13
2018-09-29T03:05:20.132Z,5.93
2018-09-29T03:07:48.359Z,5.37
2018-09-29T03:10:16.337Z,4.70
2018-09-29T03:12:44.464Z,5.00
2018-09-29T03:15:12.753Z,7.67
2018-09-29T03:17:40.714Z,6.07
2018-09-29T03:20:08.760Z,10.00
2018-09-29T03:22:36.809Z,13.47
2018-09-29T03:25:04.807Z,8.87
2018-09-29T03:27:32.853Z,4.37
2018-09-29T03:30:01.169Z,6.20
2018-09-29T03:32:29.146Z,6.80
2018-09-29T03:34:57.225Z,4.50
2018-09-29T03:37:25.605Z,5.30
2018-09-29T03:39:53.795Z,5.73
2018-09-29T03:42:21.729Z,7.97
2018-09-29T03:44:49.810Z,7.00
2018-09-29T03:47:17.770Z,6.23
2018-09-29T03:49:45.755Z,6.77
2018-09-29T03:52:13.839Z,8.50
2018-09-29T03:54:42.006Z,5.30
2018-09-29T03:57:10.014Z,6.10
2018-09-29T03:59:37.976Z,9.57
2018-09-29T04:02:05.963Z,5.77
2018-09-29T04:04:33.979Z,6.23
2018-09-29T04:07:01.963Z,7.03
2018-09-29T04:09:30.255Z,7.07
2018-09-29T04:11:58.212Z,9.63
2018-09-29T04:14:26.206Z,11.67
2018-09-29T04:16:54.248Z,9.90
2018-09-29T04:19:22.254Z,16.73
2018-09-29T04:21:50.243Z,7.70
2018-09-29T04:24:18.982Z,8.00
2018-09-29T04:26:46.933Z,7.43
2018-09-29T04:29:16.135Z,10.80
2018-09-29T04:31:44.425Z,10.23
2018-09-29T04:34:13.099Z,8.80
2018-09-29T04:36:41.387Z,11.33
2018-09-29T04:39:11.199Z,8.20
2018-09-29T04:41:39.469Z,5.90
2018-09-29T04:44:08.162Z,8.70
2018-09-29T04:46:36.191Z,10.10
2018-09-29T04:49:04.163Z,7.83
2018-09-29T04:51:32.127Z,5.57
2018-09-29T04:54:00.074Z,7.07
2018-09-29T04:56:28.068Z,8.50
2018-09-29T04:58:56.284Z,7.07
2018-09-29T05:01:24.238Z,4.37
2018-09-29T05:03:52.200Z,7.80
2018-09-29T05:06:20.202Z,7.17
2018-09-29T05:08:48.215Z,7.13
2018-09-29T05:11:16.187Z,10.60
2018-09-29T05:13:44.206Z,10.23
2018-09-29T05:16:12.174Z,11.57
2018-09-29T05:18:40.184Z,7.57
2018-09-29T05:21:08.156Z,7.47
2018-09-29T05:23:36.102Z,7.27
2018-09-29T05:26:04.057Z,11.20
2018-09-29T05:28:31.999Z,8.83
2018-09-29T05:30:59.991Z,8.43
2018-09-29T05:33:28.053Z,6.80
2018-09-29T05:35:56.045Z,7.53
2018-09-29T05:38:24.077Z,4.87
2018-09-29T05:40:52.380Z,7.80
2018-09-29T05:43:20.356Z,5.87
2018-09-29T05:45:48.297Z,10.93
2018-09-29T05:48:16.388Z,6.37
2018-09-29T05:50:44.332Z,10.53
2018-09-29T05:53:12.436Z,8.23
2018-09-29T05:55:40.379Z,8.17
2018-09-29T05:58:08.409Z,9.90
2018-09-29T06:00:36.457Z,4.33
2018-09-29T06:03:04.343Z,8.20
2018-09-29T06:05:32.352Z,5.97
2018-09-29T06:08:00.382Z,10.33
2018-09-29T06:10:28.630Z,6.87
2018-09-29T06:12:56.721Z,7.13
2018-09-29T06:15:24.681Z,11.13
2018-09-29T06:17:52.649Z,9.63
2018-09-29T06:20:20.728Z,4.33
2018-09-29T06:22:48.720Z,6.33
2018-09-29T06:25:16.765Z,6.20
2018-09-29T06:27:44.891Z,12.00
2018-09-29T06:30:12.887Z,7.50
2018-09-29T06:32:41.090Z,6.83
2018-09-29T06:35:09.024Z,8.97
2018-09-29T06:37:37.218Z,6.00
2018-09-29T06:40:05.394Z,7.40
2018-09-29T06:42:33.453Z,6.13
2018-09-29T06:45:01.645Z,9.77
2018-09-29T06:47:29.654Z,7.33
2018-09-29T06:49:57.668Z,5.73
2018-09-29T06:52:25.650Z,9.97
2018-09-29T06:54:53.790Z,8.20
2018-09-29T06:57:21.808Z,8.57
2018-09-29T06:59:49.780Z,6.80
2018-09-29T07:02:17.836Z,8.63
2018-09-29T07:04:45.882Z,7.73
2018-09-29T07:07:14.090Z,15.27
2018-09-29T07:09:42.168Z,9.30
2018-09-29T07:12:10.105Z,9.80
2018-09-29T07:14:38.408Z,12.20
2018-09-29T07:17:06.787Z,4.67
2018-09-29T07:19:35.169Z,9.87
2018-09-29T07:22:03.341Z,7.80
2018-09-29T07:24:31.482Z,6.00
2018-09-29T07:26:59.690Z,6.43
2018-09-29T07:29:27.662Z,11.70
2018-09-29T07:31:55.662Z,5.17
2018-09-29T07:34:23.612Z,12.67
2018-09-29T07:36:51.668Z,8.23
2018-09-29T07:39:19.759Z,8.57
2018-09-29T07:41:47.812Z,7.50
2018-09-29T07:44:15.890Z,8.30
2018-09-29T07:46:43.854Z,7.97
2018-09-29T07:49:11.961Z,9.70
2018-09-29T07:51:39.894Z,6.90
2018-09-29T07:54:07.974Z,6.13
2018-09-29T07:56:36.075Z,10.77
2018-09-29T07:59:04.122Z,8.60
2018-09-29T08:01:32.194Z,9.10
2018-09-29T08:04:00.221Z,4.30
2018-09-29T08:06:28.295Z,8.33
2018-09-29T08:08:56.305Z,10.10
2018-09-29T08:11:24.338Z,6.53
2018-09-29T08:13:52.453Z,9.50
2018-09-29T08:16:20.424Z,6.77
2018-09-29T08:18:48.443Z,11.73
2018-09-29T08:21:16.383Z,9.27
2018-09-29T08:23:44.531Z,10.70
2018-09-29T08:26:12.507Z,11.67
2018-09-29T08:28:40.487Z,7.00
2018-09-29T08:31:08.749Z,9.03
2018-09-29T08:33:36.717Z,10.27
2018-09-29T08:36:04.786Z,8.47
2018-09-29T08:38:32.760Z,8.93
2018-09-29T08:41:00.900Z,4.90
2018-09-29T08:43:28.906Z,7.63
2018-09-29T08:45:56.980Z,9.47
2018-09-29T08:48:25.116Z,10.13
2018-09-29T08:50:53.121Z,9.00
2018-09-29T08:53:21.201Z,6.53
2018-09-29T08:55:49.073Z,7.20
2018-09-29T08:58:17.314Z,6.60
2018-09-29T09:00:45.362Z,9.20
2018-09-29T09:03:13.489Z,3.87
2018-09-29T09:05:41.775Z,6.03
2018-09-29T09:08:09.719Z,2.90
2018-09-29T09:10:37.694Z,5.90
2018-09-29T09:13:05.991Z,7.30
2018-09-29T09:15:33.975Z,8.13
2018-09-29T09:18:08.502Z,7.30
2018-09-29T09:20:36.646Z,12.10
2018-09-29T09:23:04.651Z,3.17
2018-09-29T09:25:32.598Z,4.03
2018-09-29T09:28:00.672Z,3.90
2018-09-29T09:30:28.664Z,7.10
2018-09-29T09:32:56.608Z,3.33
2018-09-29T09:35:24.591Z,5.67
2018-09-29T09:37:52.603Z,4.60
2018-09-29T09:40:20.590Z,6.83
2018-09-29T09:42:48.579Z,6.10
2018-09-29T09:45:16.846Z,7.23
2018-09-29T09:47:44.855Z,6.53
2018-09-29T09:50:12.796Z,4.57
2018-09-29T09:52:40.862Z,6.70
2018-09-29T09:55:08.807Z,4.20
2018-09-29T09:57:36.809Z,2.83
2018-09-29T10:00:05.080Z,4.33
2018-09-29T10:02:38.627Z,4.50
2018-09-29T10:05:06.598Z,7.70
2018-09-29T10:07:34.558Z,5.50
2018-09-29T10:10:03.072Z,6.70
2018-09-29T10:12:31.179Z,5.10
2018-09-29T10:14:59.240Z,5.60
2018-09-29T10:17:27.551Z,9.60
2018-09-29T10:19:55.459Z,6.47
2018-09-29T10:22:23.552Z,5.33
2018-09-29T10:24:51.876Z,5.00
2018-09-29T10:27:19.906Z,4.60
2018-09-29T10:29:47.882Z,6.27
2018-09-29T10:32:16.030Z,6.17
2018-09-29T10:34:44.129Z,5.03
2018-09-29T10:37:12.090Z,5.77
2018-09-29T10:39:40.177Z,4.00
2018-09-29T10:42:08.447Z,7.37
2018-09-29T10:44:36.431Z,7.03
2018-09-29T10:47:04.367Z,2.77
2018-09-29T10:49:32.354Z,5.73
2018-09-29T10:52:00.422Z,7.80
2018-09-29T10:54:28.804Z,12.97
2018-09-29T10:56:56.827Z,6.10
2018-09-29T10:59:24.799Z,4.63
2018-09-29T11:01:53.132Z,3.60
2018-09-29T11:04:21.099Z,3.60
2018-09-29T11:06:49.034Z,5.20
2018-09-29T11:09:17.448Z,3.53
2018-09-29T11:11:45.447Z,4.17
2018-09-29T11:14:13.485Z,4.73
2018-09-29T11:16:41.770Z,2.13
2018-09-29T11:19:09.724Z,3.63
2018-09-29T11:21:37.804Z,5.00
2018-09-29T11:24:06.255Z,5.83
2018-09-29T11:26:34.196Z,2.07
2018-09-29T11:29:02.207Z,3.37
2018-09-29T11:31:30.576Z,5.93
2018-09-29T11:33:58.499Z,5.33
2018-09-29T11:36:26.474Z,3.93
2018-09-29T11:38:54.714Z,5.63
2018-09-29T11:41:22.659Z,3.03
2018-09-29T11:43:50.658Z,2.43
2018-09-29T11:46:18.674Z,5.43
2018-09-29T11:48:46.607Z,4.50
2018-09-29T11:51:14.667Z,4.07
2018-09-29T11:53:42.746Z,4.23
2018-09-29T11:56:11.765Z,3.53
2018-09-29T11:58:39.708Z,5.83
2018-09-29T12:01:07.963Z,10.53
2018-09-29T12:03:35.993Z,4.20
2018-09-29T12:06:04.162Z,5.53
2018-09-29T12:08:32.042Z,3.63
2018-09-29T12:11:00.273Z,7.07
2018-09-29T12:13:28.252Z,3.83
2018-09-29T12:15:56.422Z,2.93
2018-09-29T12:18:24.688Z,3.17
2018-09-29T12:20:52.768Z,6.63
2018-09-29T12:23:20.742Z,5.60
2018-09-29T12:25:48.758Z,2.03
2018-09-29T12:28:16.699Z,2.63
2018-09-29T12:30:44.961Z,3.43
2018-09-29T12:33:12.902Z,4.33
2018-09-29T12:35:40.896Z,2.60
2018-09-29T12:38:09.172Z,3.40
2018-09-29T12:40:37.142Z,4.30
2018-09-29T12:43:05.117Z,4.03
2018-09-29T12:45:33.081Z,4.00
2018-09-29T12:48:01.096Z,5.13
2018-09-29T12:50:29.069Z,1.57
2018-09-29T12:52:57.027Z,2.47
2018-09-29T12:55:25.057Z,1.80
2018-09-29T12:57:53.230Z,3.63
2018-09-29T13:00:21.222Z,6.77
2018-09-29T13:02:49.162Z,3.23
2018-09-29T13:05:17.216Z,5.10
2018-09-29T13:07:45.409Z,4.10
2018-09-29T13:10:13.520Z,3.70
2018-09-29T13:12:41.690Z,1.53
2018-09-29T13:15:09.642Z,1.70
2018-09-29T13:17:38.010Z,1.43
2018-09-29T13:20:06.263Z,3.43
2018-09-29T13:22:34.304Z,4.23
2018-09-29T13:25:02.338Z,2.80
2018-09-29T13:27:30.608Z,2.87
2018-09-29T13:29:58.587Z,3.00
2018-09-29T13:32:26.602Z,1.80
2018-09-29T13:34:54.623Z,3.73
2018-09-29T13:37:22.675Z,3.87
2018-09-29T13:39:50.762Z,5.30
2018-09-29T13:42:18.838Z,2.23
2018-09-29T13:44:47.014Z,4.33
2018-09-29T13:47:15.055Z,2.10
2018-09-29T13:49:43.069Z,4.47
2018-09-29T13:52:11.303Z,4.00
2018-09-29T13:54:39.410Z,3.77
2018-09-29T13:57:07.487Z,3.43
2018-09-29T13:59:35.546Z,8.37
2018-09-29T14:02:03.670Z,3.73
2018-09-29T14:04:31.846Z,3.00
2018-09-29T14:06:59.976Z,3.20
2018-09-29T14:09:27.943Z,4.60
2018-09-29T14:11:56.015Z,5.50
2018-09-29T14:14:23.979Z,5.07
2018-09-29T14:16:51.964Z,2.90
2018-09-29T14:19:19.927Z,9.27
2018-09-29T14:21:48.066Z,5.57
2018-09-29T14:24:16.069Z,6.30
2018-09-29T14:26:44.442Z,3.70
2018-09-29T14:29:12.526Z,2.40
2018-09-29T14:31:40.489Z,2.23
2018-09-29T14:34:08.527Z,3.73
2018-09-29T14:36:36.479Z,2.60
2018-09-29T14:39:07.260Z,2.00
2018-09-29T14:41:35.207Z,4.47
2018-09-29T14:44:03.203Z,1.80
2018-09-29T14:46:31.243Z,2.37
2018-09-29T14:48:59.255Z,3.87
2018-09-29T14:51:27.286Z,3.00
2018-09-29T14:53:55.231Z,4.17
2018-09-29T14:56:23.224Z,2.67
2018-09-29T14:58:51.231Z,8.57
2018-09-29T15:01:19.199Z,15.17
2018-09-29T15:03:47.175Z,10.60
2018-09-29T15:06:15.122Z,3.10
2018-09-29T15:08:43.210Z,3.67
2018-09-29T15:11:11.553Z,7.13
2018-09-29T15:13:39.536Z,2.53
2018-09-29T15:16:07.834Z,2.20
2018-09-29T15:18:35.992Z,4.47
2018-09-29T15:21:04.289Z,5.23
2018-09-29T15:23:32.304Z,3.17
2018-09-29T15:26:00.312Z,6.53
2018-09-29T15:28:28.305Z,2.27
2018-09-29T15:30:56.297Z,2.37
2018-09-29T15:33:24.344Z,2.60
2018-09-29T15:35:52.424Z,2.83
2018-09-29T15:38:20.450Z,1.80
2018-09-29T15:40:48.452Z,2.47
2018-09-29T15:43:16.541Z,1.27
2018-09-29T15:45:44.526Z,4.00
2018-09-29T15:48:12.662Z,2.47
2018-09-29T15:50:40.701Z,1.70
2018-09-29T15:53:08.760Z,2.93
2018-09-29T15:55:36.850Z,1.00
2018-09-29T15:58:06.026Z,1.40
2018-09-29T16:00:33.969Z,2.53
2018-09-29T16:03:02.046Z,2.23
2018-09-29T16:05:30.023Z,5.00
2018-09-29T16:07:58.134Z,2.27
2018-09-29T16:10:26.255Z,3.43
2018-09-29T16:12:54.401Z,1.80
2018-09-29T16:15:22.488Z,2.60
2018-09-29T16:17:50.435Z,5.57
2018-09-29T16:20:18.431Z,3.70
2018-09-29T16:22:46.398Z,5.13
2018-09-29T16:25:14.468Z,8.13
2018-09-29T16:27:42.609Z,2.53
2018-09-29T16:30:10.610Z,4.10
2018-09-29T16:32:38.655Z,2.60
2018-09-29T16:35:06.826Z,3.40
2018-09-29T16:37:34.832Z,2.40
2018-09-29T16:40:02.802Z,6.20
2018-09-29T16:42:30.766Z,8.20
2018-09-29T16:44:58.716Z,3.50
2018-09-29T16:47:26.713Z,3.87
2018-09-29T16:49:54.708Z,7.43
2018-09-29T16:52:22.767Z,5.90
2018-09-29T16:54:50.824Z,9.07
2018-09-29T16:57:18.797Z,7.07
2018-09-29T16:59:46.881Z,4.57
2018-09-29T17:02:14.834Z,7.20
2018-09-29T17:04:42.957Z,2.57
2018-09-29T17:07:10.873Z,8.47
2018-09-29T17:09:38.837Z,5.50
2018-09-29T17:12:07.316Z,8.30
2018-09-29T17:14:35.386Z,7.10
2018-09-29T17:17:03.362Z,5.33
2018-09-29T17:19:31.491Z,6.07
2018-09-29T17:21:59.697Z,3.17
2018-09-29T17:24:27.629Z,8.07
2018-09-29T17:26:55.614Z,6.87
2018-09-29T17:29:23.648Z,7.23
2018-09-29T17:31:51.763Z,7.47
2018-09-29T17:34:19.686Z,5.17
2018-09-29T17:36:47.641Z,6.23
2018-09-29T17:39:15.601Z,4.50
2018-09-29T17:41:43.671Z,4.53
2018-09-29T17:44:11.714Z,7.40
2018-09-29T17:46:39.719Z,10.37
2018-09-29T17:49:08.052Z,8.20
2018-09-29T17:51:36.070Z,7.20
2018-09-29T17:54:04.083Z,14.93
2018-09-29T17:56:32.182Z,11.13
2018-09-29T17:59:00.472Z,6.90
2018-09-29T18:01:28.471Z,8.53
2018-09-29T18:04:02.907Z,8.43
2018-09-29T18:06:30.951Z,7.50
2018-09-29T18:08:58.985Z,9.67
2018-09-29T18:11:27.311Z,9.00
2018-09-29T18:13:55.296Z,7.93
2018-09-29T18:16:23.347Z,18.23
2018-09-29T18:18:51.305Z,12.37
2018-09-29T18:21:19.413Z,11.97
2018-09-29T18:23:47.488Z,12.13
2018-09-29T18:26:15.457Z,12.13
2018-09-29T18:28:43.507Z,11.60
2018-09-29T18:31:11.570Z,11.67
2018-09-29T18:33:39.657Z,9.50
2018-09-29T18:36:07.787Z,8.53
2018-09-29T18:38:35.881Z,10.47
2018-09-29T18:41:03.976Z,11.40
2018-09-29T18:43:31.964Z,13.07
2018-09-29T18:46:00.012Z,14.20
2018-09-29T18:48:28.035Z,14.13
2018-09-29T18:50:55.987Z,10.73
2018-09-29T18:53:23.950Z,13.00
2018-09-29T18:55:52.095Z,12.30
2018-09-29T18:58:20.052Z,14.33
2018-09-29T19:00:48.234Z,17.27
2018-09-29T19:03:16.239Z,12.43
2018-09-29T19:05:44.275Z,11.20
2018-09-29T19:08:12.254Z,13.00
2018-09-29T19:10:40.412Z,15.47
2018-09-29T19:13:08.567Z,13.27
2018-09-29T19:15:36.871Z,15.17
2018-09-29T19:18:05.054Z,20.53
2018-09-29T19:20:36.312Z,14.27
2018-09-29T19:23:04.401Z,16.17
2018-09-29T19:25:32.444Z,14.20
2018-09-29T19:28:00.388Z,23.30
2018-09-29T19:30:28.384Z,22.70
2018-09-29T19:32:56.447Z,15.87
2018-09-29T19:35:24.518Z,14.77
2018-09-29T19:37:52.612Z,15.77
2018-09-29T19:40:20.576Z,17.43
2018-09-29T19:42:48.515Z,16.67
2018-09-29T19:45:16.484Z,22.27
2018-09-29T19:47:44.423Z,23.80
2018-09-29T19:50:12.451Z,17.87
2018-09-29T19:52:40.529Z,19.90
2018-09-29T19:55:08.478Z,20.20
2018-09-29T19:57:36.571Z,20.90
2018-09-29T20:00:04.640Z,23.00
2018-09-29T20:02:32.708Z,22.40
2018-09-29T20:05:00.702Z,23.40
2018-09-29T20:07:28.718Z,22.90
2018-09-29T20:09:56.764Z,24.87
2018-09-29T20:12:24.752Z,27.23
2018-09-29T20:14:52.720Z,26.10
2018-09-29T20:17:20.664Z,24.77
2018-09-29T20:19:48.617Z,25.43
2018-09-29T20:22:16.551Z,25.57
2018-09-29T20:24:44.548Z,30.17
2018-09-29T20:27:12.731Z,28.83
2018-09-29T20:29:40.691Z,25.57
2018-09-29T20:32:08.659Z,30.83
2018-09-29T20:34:36.610Z,31.83
2018-09-29T20:37:04.893Z,28.33
2018-09-29T20:39:32.947Z,23.67
2018-09-29T20:42:01.152Z,30.63
2018-09-29T20:44:29.165Z,25.67
2018-09-29T20:46:57.194Z,24.63
2018-09-29T20:49:25.329Z,24.97
2018-09-29T20:51:53.394Z,27.63
2018-09-29T20:54:21.395Z,27.43
2018-09-29T20:56:49.494Z,35.93
2018-09-29T20:59:17.560Z,26.70
2018-09-29T21:01:45.555Z,34.03
2018-09-29T21:04:13.570Z,25.03
2018-09-29T21:06:41.651Z,27.00
2018-09-29T21:09:09.609Z,22.67
2018-09-29T21:11:37.971Z,29.07
2018-09-29T21:14:05.990Z,31.77
2018-09-29T21:16:34.045Z,26.17
2018-09-29T21:19:01.999Z,25.77
2018-09-29T21:21:30.004Z,20.90
2018-09-29T21:23:58.130Z,22.70
2018-09-29T21:26:26.196Z,22.63
2018-09-29T21:28:54.156Z,23.83
2018-09-29T21:31:22.186Z,18.33
2018-09-29T21:33:50.165Z,17.67
2018-09-29T21:36:18.215Z,16.57
2018-09-29T21:38:46.292Z,15.67
2018-09-29T21:41:14.364Z,18.53
2018-09-29T21:43:42.367Z,17.60
2018-09-29T21:46:10.408Z,21.83
2018-09-29T21:48:38.378Z,17.27
2018-09-29T21:51:06.751Z,20.00
2018-09-29T21:53:34.776Z,14.80
2018-09-29T21:56:03.015Z,17.23
2018-09-29T21:58:31.069Z,14.73
2018-09-29T22:01:04.588Z,15.27
2018-09-29T22:03:32.644Z,17.00
2018-09-29T22:06:00.719Z,13.43
2018-09-29T22:11:01.983Z,20.13
2018-09-29T22:13:29.948Z,15.70
2018-09-29T22:15:57.912Z,15.50
2018-09-29T22:18:25.935Z,15.37
2018-09-29T22:20:53.943Z,14.33
2018-09-29T22:23:22.045Z,19.57
2018-09-29T22:25:49.999Z,14.77
2018-09-29T22:28:17.967Z,46.70
2018-09-29T22:30:46.047Z,21.00
2018-09-29T22:33:14.115Z,12.50
2018-09-29T22:35:42.300Z,15.33
2018-09-29T22:38:10.300Z,19.70
2018-09-29T22:40:38.251Z,15.77
2018-09-29T22:43:06.386Z,15.60
2018-09-29T22:45:34.379Z,14.73
2018-09-29T22:48:02.367Z,11.53
2018-09-29T22:50:30.302Z,11.43
2018-09-29T22:52:58.288Z,11.73
2018-09-29T22:55:26.299Z,10.80
2018-09-29T22:57:54.269Z,13.93
2018-09-29T23:00:22.292Z,17.57
2018-09-29T23:02:50.263Z,12.03
2018-09-29T23:05:18.316Z,14.00
2018-09-29T23:07:46.413Z,11.00
2018-09-29T23:10:14.380Z,14.50
2018-09-29T23:12:42.326Z,11.77
2018-09-29T23:15:10.387Z,12.83
2018-09-29T23:17:38.450Z,8.20
2018-09-29T23:20:06.456Z,10.77
2018-09-29T23:22:34.526Z,10.27
2018-09-29T23:25:02.610Z,11.77
2018-09-29T23:27:30.542Z,9.63
2018-09-29T23:29:58.646Z,11.17
2018-09-29T23:32:26.709Z,10.37
2018-09-29T23:34:54.695Z,9.33
2018-09-29T23:37:22.665Z,10.20
2018-09-29T23:39:50.673Z,12.33
2018-09-29T23:42:18.614Z,9.63
2018-09-29T23:44:46.642Z,12.07
2018-09-29T23:47:14.698Z,9.67
2018-09-29T23:49:42.722Z,10.70
2018-09-29T23:52:10.781Z,10.13
2018-09-29T23:54:38.802Z,8.07
2018-09-29T23:57:06.822Z,8.27
2018-09-29T23:59:34.787Z,11.57
